sensor_id;sensor_type;location;lat;lon;timestamp;P1;durP1;ratioP1;P2;durP2;ratioP2
13289;SDS011;6713;50.954;5.310;2024-03-08T00:02:34;17.60;;;12.77;;
13289;SDS011;6713;50.954;5.310;2024-03-08T00:05:02;18.37;;;12.03;;
13289;SDS011;6713;50.954;5.310;2024-03-08T00:07:28;17.33;;;13.33;;
13289;SDS011;6713;50.954;5.310;2024-03-08T00:09:54;17.87;;;13.47;;
13289;SDS011;6713;50.954;5.310;2024-03-08T00:12:21;21.50;;;13.83;;
13289;SDS011;6713;50.954;5.310;2024-03-08T00:14:47;17.77;;;12.27;;
13289;SDS011;6713;50.954;5.310;2024-03-08T00:17:13;19.80;;;13.20;;
13289;SDS011;6713;50.954;5.310;2024-03-08T00:19:40;20.40;;;13.33;;
13289;SDS011;6713;50.954;5.310;2024-03-08T00:22:08;19.43;;;13.27;;
13289;SDS011;6713;50.954;5.310;2024-03-08T00:24:36;21.83;;;14.77;;
13289;SDS011;6713;50.954;5.310;2024-03-08T00:27:03;18.07;;;13.40;;
13289;SDS011;6713;50.954;5.310;2024-03-08T00:29:29;18.47;;;14.13;;
13289;SDS011;6713;50.954;5.310;2024-03-08T00:31:56;18.77;;;14.03;;
13289;SDS011;6713;50.954;5.310;2024-03-08T00:34:22;21.13;;;14.10;;
13289;SDS011;6713;50.954;5.310;2024-03-08T00:36:49;17.27;;;12.70;;
13289;SDS011;6713;50.954;5.310;2024-03-08T00:39:19;18.40;;;13.53;;
13289;SDS011;6713;50.954;5.310;2024-03-08T00:41:46;18.73;;;14.37;;
13289;SDS011;6713;50.954;5.310;2024-03-08T00:44:12;16.93;;;13.53;;
13289;SDS011;6713;50.954;5.310;2024-03-08T00:46:39;21.63;;;14.67;;
13289;SDS011;6713;50.954;5.310;2024-03-08T00:49:05;17.57;;;13.00;;
13289;SDS011;6713;50.954;5.310;2024-03-08T00:51:31;19.53;;;14.80;;
13289;SDS011;6713;50.954;5.310;2024-03-08T00:53:58;19.33;;;14.37;;
13289;SDS011;6713;50.954;5.310;2024-03-08T00:56:25;16.80;;;13.73;;
13289;SDS011;6713;50.954;5.310;2024-03-08T00:58:52;22.07;;;14.80;;
13289;SDS011;6713;50.954;5.310;2024-03-08T01:01:19;20.20;;;14.47;;
13289;SDS011;6713;50.954;5.310;2024-03-08T01:03:45;16.80;;;12.17;;
13289;SDS011;6713;50.954;5.310;2024-03-08T01:06:11;19.93;;;14.73;;
13289;SDS011;6713;50.954;5.310;2024-03-08T01:08:38;20.33;;;15.63;;
13289;SDS011;6713;50.954;5.310;2024-03-08T01:11:07;18.53;;;14.00;;
13289;SDS011;6713;50.954;5.310;2024-03-08T01:13:35;18.10;;;13.90;;
13289;SDS011;6713;50.954;5.310;2024-03-08T01:16:01;23.00;;;16.03;;
13289;SDS011;6713;50.954;5.310;2024-03-08T01:18:28;22.47;;;15.57;;
13289;SDS011;6713;50.954;5.310;2024-03-08T01:20:55;19.03;;;14.80;;
13289;SDS011;6713;50.954;5.310;2024-03-08T01:23:21;20.57;;;15.47;;
13289;SDS011;6713;50.954;5.310;2024-03-08T01:25:47;21.33;;;16.50;;
13289;SDS011;6713;50.954;5.310;2024-03-08T01:28:17;19.87;;;15.20;;
13289;SDS011;6713;50.954;5.310;2024-03-08T01:30:44;18.50;;;15.13;;
13289;SDS011;6713;50.954;5.310;2024-03-08T01:33:11;21.17;;;16.47;;
13289;SDS011;6713;50.954;5.310;2024-03-08T01:35:37;20.67;;;16.47;;
13289;SDS011;6713;50.954;5.310;2024-03-08T01:38:06;20.73;;;14.73;;
13289;SDS011;6713;50.954;5.310;2024-03-08T01:40:32;20.40;;;16.47;;
13289;SDS011;6713;50.954;5.310;2024-03-08T01:45:40;19.83;;;15.60;;
13289;SDS011;6713;50.954;5.310;2024-03-08T01:48:08;18.03;;;14.67;;
13289;SDS011;6713;50.954;5.310;2024-03-08T01:50:35;20.80;;;14.63;;
13289;SDS011;6713;50.954;5.310;2024-03-08T01:53:01;18.27;;;15.80;;
13289;SDS011;6713;50.954;5.310;2024-03-08T01:55:28;19.97;;;15.73;;
13289;SDS011;6713;50.954;5.310;2024-03-08T01:57:54;19.73;;;15.03;;
13289;SDS011;6713;50.954;5.310;2024-03-08T02:00:21;20.73;;;16.40;;
13289;SDS011;6713;50.954;5.310;2024-03-08T02:02:48;18.40;;;15.30;;
13289;SDS011;6713;50.954;5.310;2024-03-08T02:05:17;19.23;;;15.43;;
13289;SDS011;6713;50.954;5.310;2024-03-08T02:07:43;20.47;;;15.83;;
13289;SDS011;6713;50.954;5.310;2024-03-08T02:10:09;21.17;;;15.63;;
13289;SDS011;6713;50.954;5.310;2024-03-08T02:12:37;20.30;;;16.37;;
13289;SDS011;6713;50.954;5.310;2024-03-08T02:15:04;18.87;;;15.13;;
13289;SDS011;6713;50.954;5.310;2024-03-08T02:17:31;20.07;;;16.37;;
13289;SDS011;6713;50.954;5.310;2024-03-08T02:19:58;22.10;;;15.73;;
13289;SDS011;6713;50.954;5.310;2024-03-08T02:22:27;21.03;;;15.77;;
13289;SDS011;6713;50.954;5.310;2024-03-08T02:24:54;23.20;;;18.23;;
13289;SDS011;6713;50.954;5.310;2024-03-08T02:27:23;21.13;;;16.23;;
13289;SDS011;6713;50.954;5.310;2024-03-08T02:29:49;18.90;;;15.47;;
13289;SDS011;6713;50.954;5.310;2024-03-08T02:32:15;22.43;;;16.20;;
13289;SDS011;6713;50.954;5.310;2024-03-08T02:34:43;21.50;;;15.63;;
13289;SDS011;6713;50.954;5.310;2024-03-08T02:37:09;22.60;;;16.70;;
13289;SDS011;6713;50.954;5.310;2024-03-08T02:39:37;22.70;;;15.87;;
13289;SDS011;6713;50.954;5.310;2024-03-08T02:42:03;21.80;;;16.67;;
13289;SDS011;6713;50.954;5.310;2024-03-08T02:44:30;20.57;;;15.70;;
13289;SDS011;6713;50.954;5.310;2024-03-08T02:46:57;22.23;;;16.73;;
13289;SDS011;6713;50.954;5.310;2024-03-08T02:49:23;22.80;;;16.77;;
13289;SDS011;6713;50.954;5.310;2024-03-08T02:51:49;19.43;;;16.83;;
13289;SDS011;6713;50.954;5.310;2024-03-08T02:54:16;20.70;;;16.87;;
13289;SDS011;6713;50.954;5.310;2024-03-08T02:56:45;21.27;;;17.53;;
13289;SDS011;6713;50.954;5.310;2024-03-08T02:59:12;22.23;;;16.80;;
13289;SDS011;6713;50.954;5.310;2024-03-08T03:01:38;21.30;;;17.30;;
13289;SDS011;6713;50.954;5.310;2024-03-08T03:04:06;21.73;;;16.93;;
13289;SDS011;6713;50.954;5.310;2024-03-08T03:06:32;22.73;;;17.07;;
13289;SDS011;6713;50.954;5.310;2024-03-08T03:08:59;21.70;;;17.50;;
13289;SDS011;6713;50.954;5.310;2024-03-08T03:11:25;19.63;;;16.00;;
13289;SDS011;6713;50.954;5.310;2024-03-08T03:13:53;18.67;;;15.53;;
13289;SDS011;6713;50.954;5.310;2024-03-08T03:16:20;22.27;;;16.70;;
13289;SDS011;6713;50.954;5.310;2024-03-08T03:18:48;24.03;;;16.10;;
13289;SDS011;6713;50.954;5.310;2024-03-08T03:21:14;20.70;;;16.00;;
13289;SDS011;6713;50.954;5.310;2024-03-08T03:23:40;20.97;;;15.70;;
13289;SDS011;6713;50.954;5.310;2024-03-08T03:26:07;19.97;;;15.23;;
13289;SDS011;6713;50.954;5.310;2024-03-08T03:28:33;20.00;;;16.27;;
13289;SDS011;6713;50.954;5.310;2024-03-08T03:31:01;22.40;;;17.20;;
13289;SDS011;6713;50.954;5.310;2024-03-08T03:33:28;19.43;;;16.57;;
13289;SDS011;6713;50.954;5.310;2024-03-08T03:35:54;24.77;;;17.23;;
13289;SDS011;6713;50.954;5.310;2024-03-08T03:38:20;25.50;;;17.53;;
13289;SDS011;6713;50.954;5.310;2024-03-08T03:40:48;22.67;;;16.20;;
13289;SDS011;6713;50.954;5.310;2024-03-08T03:43:17;23.27;;;17.13;;
13289;SDS011;6713;50.954;5.310;2024-03-08T03:45:44;22.87;;;16.87;;
13289;SDS011;6713;50.954;5.310;2024-03-08T03:48:11;19.73;;;15.77;;
13289;SDS011;6713;50.954;5.310;2024-03-08T03:50:38;20.50;;;15.13;;
13289;SDS011;6713;50.954;5.310;2024-03-08T03:53:04;22.97;;;17.17;;
13289;SDS011;6713;50.954;5.310;2024-03-08T03:55:33;24.97;;;16.80;;
13289;SDS011;6713;50.954;5.310;2024-03-08T03:57:59;20.00;;;15.57;;
13289;SDS011;6713;50.954;5.310;2024-03-08T04:00:26;29.10;;;16.20;;
13289;SDS011;6713;50.954;5.310;2024-03-08T04:02:53;19.33;;;15.50;;
13289;SDS011;6713;50.954;5.310;2024-03-08T04:05:21;20.43;;;15.80;;
13289;SDS011;6713;50.954;5.310;2024-03-08T04:07:47;22.43;;;16.67;;
13289;SDS011;6713;50.954;5.310;2024-03-08T04:10:13;21.77;;;15.70;;
13289;SDS011;6713;50.954;5.310;2024-03-08T04:12:40;27.07;;;17.33;;
13289;SDS011;6713;50.954;5.310;2024-03-08T04:15:07;21.50;;;15.90;;
13289;SDS011;6713;50.954;5.310;2024-03-08T04:17:33;24.53;;;17.93;;
13289;SDS011;6713;50.954;5.310;2024-03-08T04:20:02;20.73;;;15.67;;
13289;SDS011;6713;50.954;5.310;2024-03-08T04:22:35;20.00;;;13.97;;
13289;SDS011;6713;50.954;5.310;2024-03-08T04:25:01;19.23;;;15.60;;
13289;SDS011;6713;50.954;5.310;2024-03-08T04:27:28;21.23;;;15.87;;
13289;SDS011;6713;50.954;5.310;2024-03-08T04:29:54;23.80;;;16.87;;
13289;SDS011;6713;50.954;5.310;2024-03-08T04:32:22;24.70;;;15.20;;
13289;SDS011;6713;50.954;5.310;2024-03-08T04:34:48;20.90;;;16.30;;
13289;SDS011;6713;50.954;5.310;2024-03-08T04:37:15;20.93;;;14.67;;
13289;SDS011;6713;50.954;5.310;2024-03-08T04:39:44;21.77;;;16.27;;
13289;SDS011;6713;50.954;5.310;2024-03-08T04:42:12;22.27;;;15.33;;
13289;SDS011;6713;50.954;5.310;2024-03-08T04:44:38;24.90;;;17.00;;
13289;SDS011;6713;50.954;5.310;2024-03-08T04:47:05;21.03;;;15.87;;
13289;SDS011;6713;50.954;5.310;2024-03-08T04:49:32;23.17;;;17.27;;
13289;SDS011;6713;50.954;5.310;2024-03-08T04:52:00;19.63;;;15.70;;
13289;SDS011;6713;50.954;5.310;2024-03-08T04:54:28;21.67;;;15.03;;
13289;SDS011;6713;50.954;5.310;2024-03-08T04:56:55;18.73;;;15.70;;
13289;SDS011;6713;50.954;5.310;2024-03-08T04:59:22;23.07;;;15.70;;
13289;SDS011;6713;50.954;5.310;2024-03-08T05:01:50;20.60;;;16.43;;
13289;SDS011;6713;50.954;5.310;2024-03-08T05:04:16;21.60;;;16.47;;
13289;SDS011;6713;50.954;5.310;2024-03-08T05:06:43;24.33;;;15.60;;
13289;SDS011;6713;50.954;5.310;2024-03-08T05:09:09;21.00;;;15.80;;
13289;SDS011;6713;50.954;5.310;2024-03-08T05:11:41;21.57;;;14.90;;
13289;SDS011;6713;50.954;5.310;2024-03-08T05:14:09;25.00;;;16.27;;
13289;SDS011;6713;50.954;5.310;2024-03-08T05:16:35;23.90;;;15.93;;
13289;SDS011;6713;50.954;5.310;2024-03-08T05:19:02;21.97;;;15.13;;
13289;SDS011;6713;50.954;5.310;2024-03-08T05:21:28;21.70;;;16.57;;
13289;SDS011;6713;50.954;5.310;2024-03-08T05:23:55;22.73;;;16.67;;
13289;SDS011;6713;50.954;5.310;2024-03-08T05:26:21;21.27;;;15.50;;
13289;SDS011;6713;50.954;5.310;2024-03-08T05:28:48;22.10;;;15.83;;
13289;SDS011;6713;50.954;5.310;2024-03-08T05:31:19;22.33;;;14.23;;
13289;SDS011;6713;50.954;5.310;2024-03-08T05:33:45;19.23;;;15.23;;
13289;SDS011;6713;50.954;5.310;2024-03-08T05:36:12;20.53;;;15.60;;
13289;SDS011;6713;50.954;5.310;2024-03-08T05:38:40;18.03;;;14.43;;
13289;SDS011;6713;50.954;5.310;2024-03-08T05:41:07;20.80;;;13.97;;
13289;SDS011;6713;50.954;5.310;2024-03-08T05:43:34;19.63;;;15.47;;
13289;SDS011;6713;50.954;5.310;2024-03-08T05:46:00;23.67;;;15.83;;
13289;SDS011;6713;50.954;5.310;2024-03-08T05:48:29;23.20;;;15.40;;
13289;SDS011;6713;50.954;5.310;2024-03-08T05:50:57;23.43;;;15.97;;
13289;SDS011;6713;50.954;5.310;2024-03-08T05:53:23;22.93;;;16.10;;
13289;SDS011;6713;50.954;5.310;2024-03-08T05:55:50;23.67;;;15.80;;
13289;SDS011;6713;50.954;5.310;2024-03-08T05:58:16;23.70;;;16.07;;
13289;SDS011;6713;50.954;5.310;2024-03-08T06:00:42;24.43;;;15.40;;
13289;SDS011;6713;50.954;5.310;2024-03-08T06:03:11;25.47;;;16.70;;
13289;SDS011;6713;50.954;5.310;2024-03-08T06:05:38;24.57;;;15.77;;
13289;SDS011;6713;50.954;5.310;2024-03-08T06:08:07;23.83;;;17.40;;
13289;SDS011;6713;50.954;5.310;2024-03-08T06:10:33;21.93;;;16.00;;
13289;SDS011;6713;50.954;5.310;2024-03-08T06:13:00;26.57;;;17.30;;
13289;SDS011;6713;50.954;5.310;2024-03-08T06:15:27;24.10;;;16.50;;
13289;SDS011;6713;50.954;5.310;2024-03-08T06:17:53;21.67;;;14.87;;
13289;SDS011;6713;50.954;5.310;2024-03-08T06:20:20;20.07;;;15.33;;
13289;SDS011;6713;50.954;5.310;2024-03-08T06:22:52;24.90;;;16.00;;
13289;SDS011;6713;50.954;5.310;2024-03-08T06:25:18;22.97;;;16.73;;
13289;SDS011;6713;50.954;5.310;2024-03-08T06:27:46;22.10;;;16.37;;
13289;SDS011;6713;50.954;5.310;2024-03-08T06:30:13;23.07;;;15.87;;
13289;SDS011;6713;50.954;5.310;2024-03-08T06:32:41;23.13;;;16.47;;
13289;SDS011;6713;50.954;5.310;2024-03-08T06:35:08;22.73;;;16.10;;
13289;SDS011;6713;50.954;5.310;2024-03-08T06:37:35;23.13;;;15.43;;
13289;SDS011;6713;50.954;5.310;2024-03-08T06:40:03;23.70;;;15.70;;
13289;SDS011;6713;50.954;5.310;2024-03-08T06:42:30;27.00;;;16.67;;
13289;SDS011;6713;50.954;5.310;2024-03-08T06:44:58;22.07;;;15.90;;
13289;SDS011;6713;50.954;5.310;2024-03-08T06:47:30;23.73;;;17.37;;
13289;SDS011;6713;50.954;5.310;2024-03-08T06:49:56;23.97;;;15.13;;
13289;SDS011;6713;50.954;5.310;2024-03-08T06:52:22;26.03;;;16.40;;
13289;SDS011;6713;50.954;5.310;2024-03-08T06:54:49;23.80;;;16.37;;
13289;SDS011;6713;50.954;5.310;2024-03-08T06:57:18;21.17;;;15.47;;
13289;SDS011;6713;50.954;5.310;2024-03-08T06:59:47;29.27;;;19.57;;
13289;SDS011;6713;50.954;5.310;2024-03-08T07:02:13;22.33;;;16.03;;
13289;SDS011;6713;50.954;5.310;2024-03-08T07:04:39;23.57;;;16.00;;
13289;SDS011;6713;50.954;5.310;2024-03-08T07:07:06;22.52;;;16.45;;
13289;SDS011;6713;50.954;5.310;2024-03-08T07:09:34;19.90;;;13.50;;
13289;SDS011;6713;50.954;5.310;2024-03-08T07:12:00;22.53;;;14.97;;
13289;SDS011;6713;50.954;5.310;2024-03-08T07:14:28;23.23;;;16.43;;
13289;SDS011;6713;50.954;5.310;2024-03-08T07:16:56;24.27;;;17.00;;
13289;SDS011;6713;50.954;5.310;2024-03-08T07:19:22;24.30;;;17.50;;
13289;SDS011;6713;50.954;5.310;2024-03-08T07:21:49;23.17;;;15.43;;
13289;SDS011;6713;50.954;5.310;2024-03-08T07:24:15;26.13;;;17.37;;
13289;SDS011;6713;50.954;5.310;2024-03-08T07:27:03;26.13;;;16.53;;
13289;SDS011;6713;50.954;5.310;2024-03-08T07:29:31;28.10;;;17.47;;
13289;SDS011;6713;50.954;5.310;2024-03-08T07:31:57;27.57;;;16.40;;
13289;SDS011;6713;50.954;5.310;2024-03-08T07:34:37;25.63;;;16.27;;
13289;SDS011;6713;50.954;5.310;2024-03-08T07:37:05;19.37;;;15.37;;
13289;SDS011;6713;50.954;5.310;2024-03-08T07:39:31;22.60;;;16.27;;
13289;SDS011;6713;50.954;5.310;2024-03-08T07:41:57;23.93;;;14.87;;
13289;SDS011;6713;50.954;5.310;2024-03-08T07:44:24;20.93;;;15.63;;
13289;SDS011;6713;50.954;5.310;2024-03-08T07:46:51;25.10;;;15.03;;
13289;SDS011;6713;50.954;5.310;2024-03-08T07:49:18;21.03;;;14.40;;
13289;SDS011;6713;50.954;5.310;2024-03-08T07:51:44;22.27;;;15.90;;
13289;SDS011;6713;50.954;5.310;2024-03-08T07:54:10;20.37;;;15.30;;
13289;SDS011;6713;50.954;5.310;2024-03-08T07:56:37;21.57;;;15.93;;
13289;SDS011;6713;50.954;5.310;2024-03-08T07:59:03;21.47;;;14.90;;
13289;SDS011;6713;50.954;5.310;2024-03-08T08:01:30;26.00;;;16.73;;
13289;SDS011;6713;50.954;5.310;2024-03-08T08:03:59;19.63;;;14.20;;
13289;SDS011;6713;50.954;5.310;2024-03-08T08:06:26;20.17;;;14.60;;
13289;SDS011;6713;50.954;5.310;2024-03-08T08:08:52;18.97;;;14.03;;
13289;SDS011;6713;50.954;5.310;2024-03-08T08:11:19;22.07;;;14.57;;
13289;SDS011;6713;50.954;5.310;2024-03-08T08:13:46;18.43;;;12.87;;
13289;SDS011;6713;50.954;5.310;2024-03-08T08:16:12;18.33;;;13.70;;
13289;SDS011;6713;50.954;5.310;2024-03-08T08:18:39;17.30;;;13.03;;
13289;SDS011;6713;50.954;5.310;2024-03-08T08:21:07;20.43;;;15.30;;
13289;SDS011;6713;50.954;5.310;2024-03-08T08:23:33;19.07;;;13.50;;
13289;SDS011;6713;50.954;5.310;2024-03-08T08:26:00;16.90;;;13.27;;
13289;SDS011;6713;50.954;5.310;2024-03-08T08:28:28;16.00;;;12.50;;
13289;SDS011;6713;50.954;5.310;2024-03-08T08:30:55;18.90;;;14.67;;
13289;SDS011;6713;50.954;5.310;2024-03-08T08:33:22;18.10;;;13.87;;
13289;SDS011;6713;50.954;5.310;2024-03-08T08:35:50;16.47;;;11.60;;
13289;SDS011;6713;50.954;5.310;2024-03-08T08:38:20;17.43;;;14.07;;
13289;SDS011;6713;50.954;5.310;2024-03-08T08:40:46;17.33;;;12.77;;
13289;SDS011;6713;50.954;5.310;2024-03-08T08:43:13;18.23;;;13.73;;
13289;SDS011;6713;50.954;5.310;2024-03-08T08:45:39;15.17;;;12.23;;
13289;SDS011;6713;50.954;5.310;2024-03-08T08:48:06;17.93;;;12.70;;
13289;SDS011;6713;50.954;5.310;2024-03-08T08:50:32;15.60;;;11.40;;
13289;SDS011;6713;50.954;5.310;2024-03-08T08:52:59;16.67;;;13.30;;
13289;SDS011;6713;50.954;5.310;2024-03-08T08:55:27;15.40;;;13.33;;
13289;SDS011;6713;50.954;5.310;2024-03-08T08:57:53;17.27;;;13.60;;
13289;SDS011;6713;50.954;5.310;2024-03-08T09:00:21;14.80;;;11.73;;
13289;SDS011;6713;50.954;5.310;2024-03-08T09:02:52;17.80;;;13.90;;
13289;SDS011;6713;50.954;5.310;2024-03-08T09:05:20;18.00;;;14.87;;
13289;SDS011;6713;50.954;5.310;2024-03-08T09:07:49;18.17;;;13.13;;
13289;SDS011;6713;50.954;5.310;2024-03-08T09:10:15;20.33;;;14.07;;
13289;SDS011;6713;50.954;5.310;2024-03-08T09:12:43;16.93;;;11.87;;
13289;SDS011;6713;50.954;5.310;2024-03-08T09:15:09;15.77;;;12.20;;
13289;SDS011;6713;50.954;5.310;2024-03-08T09:17:36;15.23;;;12.30;;
13289;SDS011;6713;50.954;5.310;2024-03-08T09:20:04;16.67;;;13.10;;
13289;SDS011;6713;50.954;5.310;2024-03-08T09:22:31;14.83;;;11.50;;
13289;SDS011;6713;50.954;5.310;2024-03-08T09:24:58;15.63;;;11.63;;
13289;SDS011;6713;50.954;5.310;2024-03-08T09:27:24;13.80;;;11.17;;
13289;SDS011;6713;50.954;5.310;2024-03-08T09:29:52;20.20;;;12.17;;
13289;SDS011;6713;50.954;5.310;2024-03-08T09:32:18;14.80;;;11.87;;
13289;SDS011;6713;50.954;5.310;2024-03-08T09:34:45;13.50;;;11.30;;
13289;SDS011;6713;50.954;5.310;2024-03-08T09:37:11;14.33;;;10.73;;
13289;SDS011;6713;50.954;5.310;2024-03-08T09:39:38;16.07;;;12.27;;
13289;SDS011;6713;50.954;5.310;2024-03-08T09:42:04;14.83;;;11.00;;
13289;SDS011;6713;50.954;5.310;2024-03-08T09:44:31;16.80;;;12.80;;
13289;SDS011;6713;50.954;5.310;2024-03-08T09:47:00;18.10;;;12.63;;
13289;SDS011;6713;50.954;5.310;2024-03-08T09:49:27;14.33;;;11.50;;
13289;SDS011;6713;50.954;5.310;2024-03-08T09:51:53;15.90;;;11.60;;
13289;SDS011;6713;50.954;5.310;2024-03-08T09:54:20;15.43;;;12.00;;
13289;SDS011;6713;50.954;5.310;2024-03-08T09:56:49;13.27;;;9.80;;
13289;SDS011;6713;50.954;5.310;2024-03-08T09:59:17;13.67;;;10.77;;
13289;SDS011;6713;50.954;5.310;2024-03-08T10:02:09;14.93;;;12.20;;
13289;SDS011;6713;50.954;5.310;2024-03-08T10:04:39;15.67;;;11.90;;
13289;SDS011;6713;50.954;5.310;2024-03-08T10:07:07;15.17;;;11.27;;
13289;SDS011;6713;50.954;5.310;2024-03-08T10:09:33;13.93;;;11.00;;
13289;SDS011;6713;50.954;5.310;2024-03-08T10:12:00;13.77;;;11.10;;
13289;SDS011;6713;50.954;5.310;2024-03-08T10:14:27;15.10;;;12.77;;
13289;SDS011;6713;50.954;5.310;2024-03-08T10:16:54;13.57;;;11.17;;
13289;SDS011;6713;50.954;5.310;2024-03-08T10:19:26;15.73;;;11.80;;
13289;SDS011;6713;50.954;5.310;2024-03-08T10:21:52;12.23;;;9.97;;
13289;SDS011;6713;50.954;5.310;2024-03-08T10:24:22;13.23;;;10.87;;
13289;SDS011;6713;50.954;5.310;2024-03-08T10:26:48;14.73;;;11.60;;
13289;SDS011;6713;50.954;5.310;2024-03-08T10:29:15;14.53;;;11.67;;
13289;SDS011;6713;50.954;5.310;2024-03-08T10:31:42;13.53;;;10.90;;
13289;SDS011;6713;50.954;5.310;2024-03-08T10:34:09;14.63;;;10.73;;
13289;SDS011;6713;50.954;5.310;2024-03-08T10:36:37;15.10;;;10.20;;
13289;SDS011;6713;50.954;5.310;2024-03-08T10:39:06;15.63;;;11.70;;
13289;SDS011;6713;50.954;5.310;2024-03-08T10:41:35;13.63;;;11.17;;
13289;SDS011;6713;50.954;5.310;2024-03-08T10:44:08;13.97;;;11.07;;
13289;SDS011;6713;50.954;5.310;2024-03-08T10:46:39;13.07;;;11.07;;
13289;SDS011;6713;50.954;5.310;2024-03-08T10:49:08;14.47;;;11.27;;
13289;SDS011;6713;50.954;5.310;2024-03-08T10:51:38;12.37;;;8.60;;
13289;SDS011;6713;50.954;5.310;2024-03-08T10:54:06;14.10;;;10.77;;
13289;SDS011;6713;50.954;5.310;2024-03-08T10:56:33;12.93;;;10.80;;
13289;SDS011;6713;50.954;5.310;2024-03-08T10:59:01;11.87;;;10.07;;
13289;SDS011;6713;50.954;5.310;2024-03-08T11:01:29;13.57;;;10.40;;
13289;SDS011;6713;50.954;5.310;2024-03-08T11:03:55;14.97;;;10.40;;
13289;SDS011;6713;50.954;5.310;2024-03-08T11:06:22;15.43;;;11.57;;
13289;SDS011;6713;50.954;5.310;2024-03-08T11:08:50;13.87;;;10.90;;
13289;SDS011;6713;50.954;5.310;2024-03-08T11:11:25;13.83;;;10.93;;
13289;SDS011;6713;50.954;5.310;2024-03-08T11:13:56;15.47;;;11.00;;
13289;SDS011;6713;50.954;5.310;2024-03-08T11:16:38;13.30;;;11.43;;
13289;SDS011;6713;50.954;5.310;2024-03-08T11:19:07;12.87;;;10.77;;
13289;SDS011;6713;50.954;5.310;2024-03-08T11:21:56;13.43;;;11.30;;
13289;SDS011;6713;50.954;5.310;2024-03-08T11:24:24;13.63;;;10.67;;
13289;SDS011;6713;50.954;5.310;2024-03-08T11:26:54;12.50;;;10.23;;
13289;SDS011;6713;50.954;5.310;2024-03-08T11:29:32;13.13;;;10.67;;
13289;SDS011;6713;50.954;5.310;2024-03-08T11:32:03;15.00;;;11.77;;
13289;SDS011;6713;50.954;5.310;2024-03-08T11:34:30;13.00;;;9.93;;
13289;SDS011;6713;50.954;5.310;2024-03-08T11:36:58;14.20;;;9.87;;
13289;SDS011;6713;50.954;5.310;2024-03-08T11:39:26;15.63;;;10.37;;
13289;SDS011;6713;50.954;5.310;2024-03-08T11:41:53;12.10;;;10.53;;
13289;SDS011;6713;50.954;5.310;2024-03-08T11:44:20;12.33;;;11.03;;
13289;SDS011;6713;50.954;5.310;2024-03-08T11:46:46;12.87;;;10.37;;
13289;SDS011;6713;50.954;5.310;2024-03-08T11:49:13;14.03;;;10.67;;
13289;SDS011;6713;50.954;5.310;2024-03-08T11:51:40;13.40;;;10.93;;
13289;SDS011;6713;50.954;5.310;2024-03-08T11:54:10;14.20;;;10.67;;
13289;SDS011;6713;50.954;5.310;2024-03-08T11:56:39;12.40;;;10.93;;
13289;SDS011;6713;50.954;5.310;2024-03-08T11:59:10;13.03;;;10.77;;
13289;SDS011;6713;50.954;5.310;2024-03-08T12:01:37;14.23;;;11.30;;
13289;SDS011;6713;50.954;5.310;2024-03-08T12:04:04;12.17;;;10.53;;
13289;SDS011;6713;50.954;5.310;2024-03-08T12:06:36;13.37;;;11.13;;
13289;SDS011;6713;50.954;5.310;2024-03-08T12:09:02;12.73;;;10.83;;
13289;SDS011;6713;50.954;5.310;2024-03-08T12:11:29;14.30;;;10.37;;
13289;SDS011;6713;50.954;5.310;2024-03-08T12:13:57;12.03;;;9.70;;
13289;SDS011;6713;50.954;5.310;2024-03-08T12:16:24;16.40;;;11.87;;
13289;SDS011;6713;50.954;5.310;2024-03-08T12:18:51;12.67;;;10.37;;
13289;SDS011;6713;50.954;5.310;2024-03-08T12:21:18;12.63;;;10.50;;
13289;SDS011;6713;50.954;5.310;2024-03-08T12:23:46;13.93;;;10.20;;
13289;SDS011;6713;50.954;5.310;2024-03-08T12:26:16;11.73;;;9.37;;
13289;SDS011;6713;50.954;5.310;2024-03-08T12:28:43;11.80;;;10.07;;
13289;SDS011;6713;50.954;5.310;2024-03-08T12:31:12;13.10;;;10.93;;
13289;SDS011;6713;50.954;5.310;2024-03-08T12:33:46;13.13;;;10.03;;
13289;SDS011;6713;50.954;5.310;2024-03-08T12:36:14;14.87;;;9.80;;
13289;SDS011;6713;50.954;5.310;2024-03-08T12:38:43;13.60;;;10.20;;
13289;SDS011;6713;50.954;5.310;2024-03-08T12:41:09;11.83;;;10.13;;
13289;SDS011;6713;50.954;5.310;2024-03-08T12:43:36;13.50;;;10.97;;
13289;SDS011;6713;50.954;5.310;2024-03-08T12:46:02;12.43;;;9.13;;
13289;SDS011;6713;50.954;5.310;2024-03-08T12:48:35;12.00;;;9.57;;
13289;SDS011;6713;50.954;5.310;2024-03-08T12:51:01;12.27;;;9.83;;
13289;SDS011;6713;50.954;5.310;2024-03-08T12:53:28;12.13;;;9.70;;
13289;SDS011;6713;50.954;5.310;2024-03-08T12:55:55;13.17;;;10.13;;
13289;SDS011;6713;50.954;5.310;2024-03-08T12:58:22;13.47;;;9.80;;
13289;SDS011;6713;50.954;5.310;2024-03-08T13:00:48;12.00;;;9.83;;
13289;SDS011;6713;50.954;5.310;2024-03-08T13:03:14;12.03;;;9.40;;
13289;SDS011;6713;50.954;5.310;2024-03-08T13:05:43;12.60;;;9.43;;
13289;SDS011;6713;50.954;5.310;2024-03-08T13:08:10;11.77;;;8.83;;
13289;SDS011;6713;50.954;5.310;2024-03-08T13:10:38;11.17;;;9.60;;
13289;SDS011;6713;50.954;5.310;2024-03-08T13:13:04;13.80;;;10.10;;
13289;SDS011;6713;50.954;5.310;2024-03-08T13:15:31;11.23;;;9.97;;
13289;SDS011;6713;50.954;5.310;2024-03-08T13:17:58;13.40;;;10.10;;
13289;SDS011;6713;50.954;5.310;2024-03-08T13:20:25;15.00;;;9.90;;
13289;SDS011;6713;50.954;5.310;2024-03-08T13:22:54;13.37;;;9.63;;
13289;SDS011;6713;50.954;5.310;2024-03-08T13:25:21;14.20;;;10.00;;
13289;SDS011;6713;50.954;5.310;2024-03-08T13:27:49;11.93;;;10.17;;
13289;SDS011;6713;50.954;5.310;2024-03-08T13:30:15;13.90;;;10.07;;
13289;SDS011;6713;50.954;5.310;2024-03-08T13:32:43;12.43;;;9.77;;
13289;SDS011;6713;50.954;5.310;2024-03-08T13:35:10;12.10;;;9.43;;
13289;SDS011;6713;50.954;5.310;2024-03-08T13:37:37;13.77;;;9.57;;
13289;SDS011;6713;50.954;5.310;2024-03-08T13:40:06;14.23;;;8.90;;
13289;SDS011;6713;50.954;5.310;2024-03-08T13:42:36;11.13;;;9.27;;
13289;SDS011;6713;50.954;5.310;2024-03-08T13:45:03;12.70;;;9.90;;
13289;SDS011;6713;50.954;5.310;2024-03-08T13:47:32;12.63;;;9.97;;
13289;SDS011;6713;50.954;5.310;2024-03-08T13:49:59;11.37;;;9.43;;
13289;SDS011;6713;50.954;5.310;2024-03-08T13:52:25;12.13;;;9.77;;
13289;SDS011;6713;50.954;5.310;2024-03-08T13:54:54;12.93;;;9.77;;
13289;SDS011;6713;50.954;5.310;2024-03-08T13:57:22;13.27;;;10.60;;
13289;SDS011;6713;50.954;5.310;2024-03-08T13:59:48;11.80;;;9.27;;
13289;SDS011;6713;50.954;5.310;2024-03-08T14:02:16;11.50;;;9.37;;
13289;SDS011;6713;50.954;5.310;2024-03-08T14:04:42;10.53;;;8.63;;
13289;SDS011;6713;50.954;5.310;2024-03-08T14:07:09;9.97;;;8.80;;
13289;SDS011;6713;50.954;5.310;2024-03-08T14:09:36;12.83;;;9.30;;
13289;SDS011;6713;50.954;5.310;2024-03-08T14:12:07;10.33;;;8.73;;
13289;SDS011;6713;50.954;5.310;2024-03-08T14:14:35;13.63;;;9.77;;
13289;SDS011;6713;50.954;5.310;2024-03-08T14:17:02;12.10;;;8.83;;
13289;SDS011;6713;50.954;5.310;2024-03-08T14:19:29;12.73;;;10.63;;
13289;SDS011;6713;50.954;5.310;2024-03-08T14:21:56;13.57;;;9.27;;
13289;SDS011;6713;50.954;5.310;2024-03-08T14:24:24;14.67;;;9.30;;
13289;SDS011;6713;50.954;5.310;2024-03-08T14:26:50;10.03;;;8.97;;
13289;SDS011;6713;50.954;5.310;2024-03-08T14:29:17;14.53;;;8.93;;
13289;SDS011;6713;50.954;5.310;2024-03-08T14:31:45;12.20;;;10.07;;
13289;SDS011;6713;50.954;5.310;2024-03-08T14:34:11;11.67;;;10.53;;
13289;SDS011;6713;50.954;5.310;2024-03-08T14:36:39;12.10;;;9.67;;
13289;SDS011;6713;50.954;5.310;2024-03-08T14:39:06;12.60;;;9.20;;
13289;SDS011;6713;50.954;5.310;2024-03-08T14:41:32;13.07;;;9.50;;